Time;durP1;ratioP1;P1;durP2;ratioP2;P2;SDS_P1;SDS_P2;PMS_P1;PMS_P2;Temp;Humidity;BMP_temperature;BMP_pressure;BME280_temperature;BME280_humidity;BME280_pressure;Samples;Min_cycle;Max_cycle;Signal;HPM_P1;HPM_P2
2023/08/14 00:00:40;;;;;;;13.82;8.10;;;;;;;20.09;100.00;97436.41;5035237;28;21015;-71
2023/08/14 00:03:06;;;;;;;13.75;7.75;;;;;;;20.10;100.00;97435.31;5032493;28;20443;-71
2023/08/14 00:05:33;;;;;;;13.13;7.90;;;;;;;20.10;100.00;97440.69;5032716;28;20403;-71
2023/08/14 00:08:00;;;;;;;13.13;7.65;;;;;;;20.10;100.00;97435.31;5032709;28;20457;-71
2023/08/14 00:10:26;;;;;;;14.02;7.43;;;;;;;20.11;100.00;97444.16;5046170;28;20478;-72
2023/08/14 00:12:53;;;;;;;13.18;7.78;;;;;;;20.13;100.00;97438.47;5032439;28;20414;-71
2023/08/14 00:15:19;;;;;;;14.50;8.35;;;;;;;20.13;100.00;97436.59;5032352;28;20473;-71
2023/08/14 00:17:45;;;;;;;16.92;8.35;;;;;;;20.13;100.00;97435.78;5041032;28;20871;-71
2023/08/14 00:20:11;;;;;;;16.10;9.88;;;;;;;20.13;100.00;97430.41;5032410;28;20395;-71
2023/08/14 00:22:38;;;;;;;17.55;9.85;;;;;;;20.12;100.00;97432.31;5048671;28;20409;-71
2023/08/14 00:25:06;;;;;;;18.08;10.50;;;;;;;20.10;100.00;97429.13;5032167;28;20407;-71
2023/08/14 00:27:32;;;;;;;16.95;9.07;;;;;;;20.09;100.00;97436.41;5040309;28;20925;-69
2023/08/14 00:29:58;;;;;;;14.52;8.93;;;;;;;20.10;100.00;97438.00;5031964;28;20490;-71
2023/08/14 00:32:24;;;;;;;14.73;8.20;;;;;;;20.11;100.00;97433.41;5030646;28;20411;-71
2023/08/14 00:34:51;;;;;;;14.15;8.55;;;;;;;20.14;100.00;97440.06;5030663;28;20419;-70
2023/08/14 00:37:17;;;;;;;16.33;8.82;;;;;;;20.13;100.00;97439.28;5032058;28;20410;-71
2023/08/14 00:39:43;;;;;;;13.27;8.63;;;;;;;20.14;100.00;97435.50;5040048;28;20968;-71
2023/08/14 00:42:10;;;;;;;15.10;8.80;;;;;;;20.15;100.00;97431.69;5031969;28;20490;-71
2023/08/14 00:44:37;;;;;;;13.15;8.35;;;;;;;20.16;100.00;97433.25;5032051;28;20926;-71
2023/08/14 00:47:03;;;;;;;16.20;8.63;;;;;;;20.18;100.00;97435.66;5031901;28;20501;-71
2023/08/14 00:49:29;;;;;;;15.63;8.63;;;;;;;20.19;100.00;97426.47;5031753;28;20626;-71
2023/08/14 00:51:55;;;;;;;13.27;8.38;;;;;;;20.21;100.00;97426.97;5040076;28;20407;-71
2023/08/14 00:54:22;;;;;;;13.60;8.20;;;;;;;20.23;100.00;97419.38;5031891;28;20410;-71
2023/08/14 00:56:48;;;;;;;13.85;7.80;;;;;;;20.24;100.00;97407.50;5031508;28;20781;-71
2023/08/14 00:59:16;;;;;;;14.35;8.48;;;;;;;20.26;100.00;97408.00;5031317;28;20430;-71
2023/08/14 01:01:42;;;;;;;14.23;8.25;;;;;;;20.27;100.00;97406.91;5031509;28;20399;-71
2023/08/14 01:04:08;;;;;;;13.45;8.60;;;;;;;20.28;100.00;97403.91;5031273;28;20406;-71
2023/08/14 01:06:35;;;;;;;13.03;7.67;;;;;;;20.29;100.00;97400.13;5031518;28;20429;-71
2023/08/14 01:09:01;;;;;;;14.43;8.13;;;;;;;20.30;100.00;97400.88;5038845;28;20419;-71
2023/08/14 01:11:36;;;;;;;14.68;8.43;;;;;;;20.32;100.00;97409.44;5031618;28;20832;-71
2023/08/14 01:14:11;;;;;;;14.40;8.00;;;;;;;20.32;100.00;97412.13;5043416;28;20455;-71
2023/08/14 01:16:43;;;;;;;12.23;7.65;;;;;;;20.31;100.00;97405.94;5051887;28;21026;-71
2023/08/14 01:19:19;;;;;;;15.32;8.20;;;;;;;20.32;100.00;97406.75;5046702;28;20399;-70
2023/08/14 01:21:57;;;;;;;15.80;9.23;;;;;;;20.31;100.00;97415.91;5031676;28;20945;-70
2023/08/14 01:24:28;;;;;;;14.02;8.70;;;;;;;20.30;100.00;97417.00;5031669;28;20430;-71
2023/08/14 01:26:56;;;;;;;18.95;9.52;;;;;;;20.29;100.00;97415.44;5050825;28;20471;-70
2023/08/14 01:29:22;;;;;;;17.95;9.70;;;;;;;20.29;100.00;97432.38;5045169;28;20414;-71
2023/08/14 01:31:49;;;;;;;18.60;10.35;;;;;;;20.31;100.00;97435.53;5032326;28;20399;-71
2023/08/14 01:34:15;;;;;;;24.17;13.82;;;;;;;20.34;100.00;97453.75;5046564;28;20420;-71
2023/08/14 01:36:50;;;;;;;24.75;14.57;;;;;;;20.39;100.00;97474.31;5044354;28;20485;-70
2023/08/14 01:39:22;;;;;;;29.03;16.40;;;;;;;20.42;100.00;97471.03;5052072;28;20483;-71
2023/08/14 01:41:56;;;;;;;26.90;15.40;;;;;;;20.47;100.00;97454.72;5049705;28;20408;-71
2023/08/14 01:44:25;;;;;;;24.88;14.10;;;;;;;20.48;100.00;97445.56;5031283;28;20403;-71
2023/08/14 01:46:56;;;;;;;24.38;12.98;;;;;;;20.47;100.00;97435.91;5030753;28;20497;-71
2023/08/14 01:49:23;;;;;;;21.27;12.63;;;;;;;20.45;100.00;97414.69;5028936;28;20422;-71
2023/08/14 01:51:52;;;;;;;28.70;15.65;;;;;;;20.47;100.00;97419.78;5032225;28;20399;-71
2023/08/14 01:54:19;;;;;;;34.08;18.00;;;;;;;20.45;100.00;97406.63;5037152;28;21075;-71
2023/08/14 01:56:45;;;;;;;32.70;18.40;;;;;;;20.34;100.00;97405.38;5088708;22;20453;-72
2023/08/14 01:59:13;;;;;;;34.95;17.58;;;;;;;20.25;100.00;97412.59;5088875;28;22417;-72
2023/08/14 02:01:41;;;;;;;30.25;17.25;;;;;;;20.16;100.00;97400.22;5073258;28;20396;-72
2023/08/14 02:04:08;;;;;;;28.00;15.70;;;;;;;20.04;100.00;97407.00;5090016;28;20479;-73
2023/08/14 02:06:35;;;;;;;35.70;17.17;;;;;;;20.02;100.00;97401.13;5073520;28;20495;-72
2023/08/14 02:09:01;;;;;;;30.77;15.55;;;;;;;19.96;100.00;97388.94;5069651;28;20411;-72
2023/08/14 02:11:27;;;;;;;31.10;15.90;;;;;;;19.91;100.00;97378.34;5069753;28;20412;-72
2023/08/14 02:13:53;;;;;;;37.72;18.02;;;;;;;19.87;100.00;97366.63;5069696;28;20940;-72
2023/08/14 02:16:20;;;;;;;29.27;16.02;;;;;;;19.81;100.00;97370.56;5069813;28;20734;-73
2023/08/14 02:18:47;;;;;;;39.75;17.63;;;;;;;19.71;100.00;97362.78;5069550;28;20399;-72
2023/08/14 02:21:13;;;;;;;31.30;15.80;;;;;;;19.68;100.00;97364.19;5069701;28;20404;-72
2023/08/14 02:23:39;;;;;;;33.85;15.88;;;;;;;19.65;100.00;97369.38;5069705;28;20403;-72
2023/08/14 02:26:06;;;;;;;35.08;16.90;;;;;;;19.61;100.00;97365.75;5069717;28;20396;-72
2023/08/14 02:28:32;;;;;;;29.48;15.20;;;;;;;19.61;100.00;97363.06;5051406;28;20412;-72
2023/08/14 02:31:01;;;;;;;38.50;17.73;;;;;;;19.61;100.00;97361.19;5069509;28;20423;-72
2023/08/14 02:33:27;;;;;;;33.13;16.33;;;;;;;19.59;100.00;97347.25;5069495;28;20503;-72
2023/08/14 02:35:54;;;;;;;39.65;17.38;;;;;;;19.57;100.00;97341.41;5053556;28;20404;-72
2023/08/14 02:38:21;;;;;;;30.50;15.40;;;;;;;19.54;100.00;97325.13;5072928;28;20404;-72
2023/08/14 02:40:47;;;;;;;31.58;14.75;;;;;;;19.57;100.00;97332.53;5073015;28;20805;-72
2023/08/14 02:43:13;;;;;;;29.67;14.30;;;;;;;19.59;100.00;97335.72;5073109;28;20436;-72
2023/08/14 02:45:39;;;;;;;22.70;12.18;;;;;;;19.64;100.00;97335.56;5073092;28;20411;-72
2023/08/14 02:48:06;;;;;;;21.80;11.45;;;;;;;19.69;100.00;97348.88;5073068;28;20411;-72
2023/08/14 02:50:32;;;;;;;42.70;17.77;;;;;;;19.65;100.00;97354.06;5072811;28;20491;-72
2023/08/14 02:53:00;;;;;;;29.73;14.15;;;;;;;19.60;100.00;97364.97;5072664;28;20411;-72
2023/08/14 02:55:26;;;;;;;30.17;14.45;;;;;;;19.59;100.00;97368.75;5072614;28;20412;-72
2023/08/14 02:57:53;;;;;;;27.88;12.75;;;;;;;19.58;100.00;97385.94;5072834;28;20400;-72
2023/08/14 03:00:20;;;;;;;28.63;13.13;;;;;;;19.56;100.00;97392.72;5072754;28;20819;-72
2023/08/14 03:02:46;;;;;;;32.05;13.18;;;;;;;19.55;100.00;97375.03;5072779;28;20426;-72
2023/08/14 03:05:13;;;;;;;20.00;10.50;;;;;;;19.52;100.00;97392.56;5072691;28;20427;-72
2023/08/14 03:07:39;;;;;;;22.48;10.63;;;;;;;19.51;100.00;97382.13;5072662;28;20399;-72
2023/08/14 03:10:07;;;;;;;36.00;15.68;;;;;;;19.41;100.00;97369.72;5072463;28;20469;-72
2023/08/14 03:12:33;;;;;;;34.43;14.77;;;;;;;19.28;100.00;97352.59;5072515;28;20403;-72
2023/08/14 03:15:00;;;;;;;33.72;15.45;;;;;;;19.22;100.00;97361.88;5072417;28;20411;-72
2023/08/14 03:17:26;;;;;;;28.98;14.43;;;;;;;19.20;100.00;97347.97;5072411;28;20899;-72
2023/08/14 03:19:52;;;;;;;29.48;14.23;;;;;;;19.16;100.00;97344.34;5072206;28;20470;-72
2023/08/14 03:22:18;;;;;;;31.90;14.30;;;;;;;19.10;100.00;97348.22;5072274;28;20461;-72
2023/08/14 03:24:44;;;;;;;29.23;14.02;;;;;;;19.09;100.00;97353.91;5072367;28;20404;-72
2023/08/14 03:27:12;;;;;;;31.88;15.40;;;;;;;19.05;100.00;97345.69;5072321;28;20406;-71
2023/08/14 03:29:38;;;;;;;29.73;13.48;;;;;;;19.03;100.00;97352.44;5071935;28;20439;-71
2023/08/14 03:32:05;;;;;;;31.27;14.40;;;;;;;19.04;100.00;97364.75;5054189;28;20463;-71
2023/08/14 03:34:31;;;;;;;25.50;13.23;;;;;;;19.02;100.00;97357.00;5072088;28;20426;-71
2023/08/14 03:36:57;;;;;;;36.00;15.10;;;;;;;19.00;100.00;97361.13;5072005;28;20412;-71
2023/08/14 03:39:23;;;;;;;37.77;15.83;;;;;;;18.92;100.00;97368.81;5071944;28;20434;-72
2023/08/14 03:41:50;;;;;;;33.97;14.90;;;;;;;18.87;100.00;97368.09;5071891;28;20810;-72
2023/08/14 03:44:18;;;;;;;28.10;13.90;;;;;;;18.85;100.00;97376.47;5054012;28;20490;-72
2023/08/14 03:46:44;;;;;;;24.00;12.70;;;;;;;18.87;100.00;97370.78;5071852;28;20406;-72
2023/08/14 03:49:10;;;;;;;24.45;11.45;;;;;;;18.87;100.00;97365.41;5071644;28;20416;-72
2023/08/14 03:51:36;;;;;;;20.98;10.30;;;;;;;18.89;100.00;97363.22;5071660;28;20824;-71
2023/08/14 03:54:03;;;;;;;19.08;9.55;;;;;;;18.88;100.00;97373.16;5071846;28;20404;-72
2023/08/14 03:56:29;;;;;;;19.77;10.63;;;;;;;18.88;100.00;97370.50;5071835;28;20818;-72
2023/08/14 03:58:55;;;;;;;20.13;10.30;;;;;;;18.87;100.00;97371.59;5071505;28;20399;-72
2023/08/14 04:01:23;;;;;;;17.75;9.50;;;;;;;18.85;100.00;97370.31;5071578;28;20404;-72
2023/08/14 04:03:49;;;;;;;19.63;8.85;;;;;;;18.84;100.00;97368.72;5071463;28;20403;-71
2023/08/14 04:06:15;;;;;;;16.10;8.23;;;;;;;18.83;100.00;97359.09;5071402;28;20404;-72
2023/08/14 04:08:41;;;;;;;15.25;8.25;;;;;;;18.82;100.00;97358.31;5071184;28;20819;-72
2023/08/14 04:11:09;;;;;;;23.17;10.25;;;;;;;18.83;100.00;97362.56;5071417;28;20852;-72
2023/08/14 04:13:35;;;;;;;15.88;8.93;;;;;;;18.82;100.00;97360.19;5071321;28;20404;-72
2023/08/14 04:16:03;;;;;;;13.80;8.60;;;;;;;18.80;100.00;97362.38;5071260;28;20853;-72
2023/08/14 04:18:31;;;;;;;24.50;10.32;;;;;;;18.78;100.00;97368.06;5071340;28;20762;-72
2023/08/14 04:20:58;;;;;;;17.75;8.93;;;;;;;18.74;100.00;97369.75;5070969;28;20392;-72
2023/08/14 04:23:26;;;;;;;20.40;9.32;;;;;;;18.71;100.00;97370.38;5071292;28;20396;-72
2023/08/14 04:25:52;;;;;;;25.95;11.90;;;;;;;18.69;100.00;97371.75;5071129;28;20403;-72
2023/08/14 04:28:18;;;;;;;25.10;10.95;;;;;;;18.65;100.00;97370.78;5070975;28;20753;-72
2023/08/14 04:30:45;;;;;;;25.42;11.07;;;;;;;18.60;100.00;97366.31;5070912;28;20416;-72
2023/08/14 04:33:11;;;;;;;22.05;10.85;;;;;;;18.57;100.00;97366.91;5071024;28;20403;-72
2023/08/14 04:35:38;;;;;;;22.40;10.50;;;;;;;18.55;100.00;97350.34;5070792;28;20896;-72
2023/08/14 04:38:05;;;;;;;27.10;11.35;;;;;;;18.53;100.00;97334.56;5071009;28;20676;-70
2023/08/14 04:40:31;;;;;;;19.75;9.50;;;;;;;18.53;100.00;97334.56;5070786;28;20392;-71
2023/08/14 04:42:57;;;;;;;14.23;8.13;;;;;;;18.55;100.00;97336.94;5070608;28;20403;-72
2023/08/14 04:45:23;;;;;;;15.52;7.40;;;;;;;18.59;100.00;97345.19;5070794;28;20473;-72
2023/08/14 04:47:50;;;;;;;13.70;7.32;;;;;;;18.62;100.00;97341.91;5070814;28;20399;-72
2023/08/14 04:50:16;;;;;;;12.80;7.00;;;;;;;18.64;100.00;97345.88;5076163;28;20413;-72
2023/08/14 04:52:43;;;;;;;13.27;6.80;;;;;;;18.66;100.00;97354.38;5090832;28;20398;-72
2023/08/14 04:55:10;;;;;;;16.83;7.68;;;;;;;18.67;100.00;97365.91;5090923;28;20406;-72
2023/08/14 04:57:36;;;;;;;15.35;7.30;;;;;;;18.67;100.00;97368.59;5090284;28;20431;-72
2023/08/14 05:00:04;;;;;;;14.53;7.17;;;;;;;18.68;100.00;97360.25;5090670;28;20405;-72
2023/08/14 05:02:30;;;;;;;13.73;6.63;;;;;;;18.71;100.00;97366.91;5090687;28;20405;-72
2023/08/14 05:04:56;;;;;;;12.60;6.88;;;;;;;18.74;100.00;97363.59;5090811;28;20459;-72
2023/08/14 05:07:23;;;;;;;10.85;6.18;;;;;;;18.77;100.00;97363.00;5090824;28;20400;-72
2023/08/14 05:09:50;;;;;;;12.13;6.45;;;;;;;18.81;100.00;97355.91;5090490;28;20414;-72
2023/08/14 05:12:16;;;;;;;9.82;5.40;;;;;;;18.84;100.00;97366.84;5072384;28;20409;-72
2023/08/14 05:14:43;;;;;;;11.93;6.55;;;;;;;18.90;100.00;97359.47;5090625;28;20448;-72
2023/08/14 05:17:09;;;;;;;11.18;6.43;;;;;;;18.96;100.00;97358.22;5090666;28;20402;-72
2023/08/14 05:19:35;;;;;;;13.52;6.45;;;;;;;19.03;100.00;97361.28;5090440;28;20398;-71
2023/08/14 05:22:01;;;;;;;11.40;6.43;;;;;;;19.08;100.00;97363.06;5090607;28;20417;-72
2023/08/14 05:24:27;;;;;;;11.68;6.50;;;;;;;19.13;100.00;97357.56;5090440;28;20398;-72
2023/08/14 05:26:55;;;;;;;10.48;5.93;;;;;;;19.19;100.00;97348.28;5090657;28;20739;-72
2023/08/14 05:29:21;;;;;;;12.13;6.60;;;;;;;19.25;100.00;97341.69;5090339;28;20413;-72
2023/08/14 05:31:47;;;;;;;16.98;8.20;;;;;;;19.27;100.00;97345.66;5072173;28;20459;-72
2023/08/14 05:34:13;;;;;;;14.80;7.70;;;;;;;19.35;100.00;97352.16;5090338;28;20405;-72
2023/08/14 05:36:39;;;;;;;23.03;10.43;;;;;;;19.39;100.00;97338.94;5090289;28;20540;-72
2023/08/14 05:39:08;;;;;;;17.10;9.13;;;;;;;19.40;100.00;97327.84;5090316;28;20806;-72
2023/08/14 05:41:35;;;;;;;15.18;8.30;;;;;;;19.41;100.00;97324.06;5090233;28;20667;-72
2023/08/14 05:44:02;;;;;;;13.93;7.65;;;;;;;19.44;100.00;97320.00;5070104;28;20877;-72
2023/08/14 05:46:28;;;;;;;10.45;5.95;;;;;;;19.51;100.00;97315.78;5070114;28;20410;-72
2023/08/14 05:48:55;;;;;;;14.25;6.95;;;;;;;19.58;100.00;97326.06;5069741;28;20395;-72
2023/08/14 05:51:21;;;;;;;10.40;6.13;;;;;;;19.66;100.00;97331.50;5070055;28;20453;-72
2023/08/14 05:53:47;;;;;;;9.80;5.57;;;;;;;19.69;100.00;97347.00;5070051;28;20427;-72
2023/08/14 05:56:13;;;;;;;10.52;5.80;;;;;;;19.66;100.00;97341.44;5069988;28;20487;-72
2023/08/14 05:58:39;;;;;;;12.38;5.63;;;;;;;19.65;100.00;97350.59;5069776;28;20400;-72
2023/08/14 06:01:07;;;;;;;12.45;6.28;;;;;;;19.58;100.00;97336.81;5069892;28;20400;-72
2023/08/14 06:03:34;;;;;;;12.30;6.55;;;;;;;19.54;100.00;97333.19;5069968;28;20426;-72
2023/08/14 06:06:00;;;;;;;10.50;6.20;;;;;;;19.53;100.00;97335.06;5069703;28;20832;-72
2023/08/14 06:08:27;;;;;;;12.27;6.80;;;;;;;19.51;100.00;97345.31;5069761;28;20410;-72
2023/08/14 06:10:53;;;;;;;12.93;6.72;;;;;;;19.52;100.00;97348.81;5071913;28;20769;-72
2023/08/14 06:13:19;;;;;;;10.83;5.73;;;;;;;19.52;100.00;97335.38;5073621;28;20403;-72
2023/08/14 06:15:45;;;;;;;10.98;6.10;;;;;;;19.54;100.00;97312.50;5073430;28;20442;-73
2023/08/14 06:18:13;;;;;;;10.25;5.32;;;;;;;19.57;100.00;97298.44;5073398;28;20885;-72
2023/08/14 06:20:39;;;;;;;9.18;4.85;;;;;;;19.59;100.00;97303.50;5082259;28;20448;-72
2023/08/14 06:23:05;;;;;;;9.02;4.95;;;;;;;19.61;100.00;97314.72;5075392;28;20414;-73
2023/08/14 06:25:33;;;;;;;8.43;4.70;;;;;;;19.62;100.00;97311.72;5093618;28;20426;-72
2023/08/14 06:27:59;;;;;;;7.97;4.50;;;;;;;19.64;100.00;97314.09;5093566;28;20489;-72
2023/08/14 06:30:26;;;;;;;11.27;5.53;;;;;;;19.64;100.00;97325.63;5093395;28;20445;-72
2023/08/14 06:32:52;;;;;;;17.85;7.50;;;;;;;19.59;100.00;97333.84;5093486;28;20414;-72
2023/08/14 06:35:20;;;;;;;12.85;6.72;;;;;;;19.55;100.00;97330.16;5093476;28;20832;-72
2023/08/14 06:37:46;;;;;;;10.00;5.60;;;;;;;19.56;100.00;97336.31;5093418;28;21016;-72
2023/08/14 06:40:12;;;;;;;9.88;5.80;;;;;;;19.63;100.00;97336.66;5093369;28;20394;-73
2023/08/14 06:42:38;;;;;;;9.15;5.20;;;;;;;19.73;100.00;97320.28;5093292;28;20398;-72
2023/08/14 06:45:05;;;;;;;8.93;4.87;;;;;;;19.86;100.00;97318.56;5093260;28;20398;-72
2023/08/14 06:47:32;;;;;;;8.25;4.43;;;;;;;19.97;100.00;97325.25;5092931;28;20404;-72
2023/08/14 06:49:58;;;;;;;9.85;4.45;;;;;;;20.06;100.00;97336.81;5092810;28;20418;-72
2023/08/14 06:52:25;;;;;;;8.45;4.50;;;;;;;20.13;100.00;97322.91;5093056;28;20818;-72
2023/08/14 06:54:51;;;;;;;8.27;4.30;;;;;;;20.17;100.00;97321.16;5092969;28;20402;-72
2023/08/14 06:57:18;;;;;;;7.90;4.32;;;;;;;20.20;100.00;97323.25;5092842;28;20402;-72
2023/08/14 06:59:44;;;;;;;7.30;4.03;;;;;;;20.22;100.00;97327.22;5092622;28;20398;-72
2023/08/14 07:02:10;;;;;;;6.83;4.10;;;;;;;20.27;100.00;97329.75;5092697;28;20951;-72
2023/08/14 07:04:36;;;;;;;8.10;4.75;;;;;;;20.27;100.00;97339.69;5092767;28;20466;-71
2023/08/14 07:07:02;;;;;;;9.15;4.95;;;;;;;20.29;100.00;97335.59;5092805;28;20489;-71
2023/08/14 07:09:30;;;;;;;11.43;5.78;;;;;;;20.30;100.00;97334.47;5092327;28;20406;-71
2023/08/14 07:11:56;;;;;;;9.05;5.38;;;;;;;20.32;100.00;97332.25;5092525;28;20410;-71
2023/08/14 07:14:22;;;;;;;8.43;4.93;;;;;;;20.34;100.00;97327.41;5092660;28;20490;-72
2023/08/14 07:16:48;;;;;;;7.72;4.93;;;;;;;20.37;100.00;97332.13;5092579;28;20402;-72
2023/08/14 07:19:17;;;;;;;7.30;4.30;;;;;;;20.46;100.00;97332.94;5092440;28;20429;-72
2023/08/14 07:21:43;;;;;;;6.72;4.13;;;;;;;20.56;100.00;97336.41;5091995;28;20425;-72
2023/08/14 07:24:09;;;;;;;6.70;3.85;;;;;;;20.65;100.00;97335.31;5092543;28;20485;-71
2023/08/14 07:26:37;;;;;;;7.57;4.70;;;;;;;20.71;100.00;97327.88;5092568;28;20950;-71
2023/08/14 07:29:03;;;;;;;8.10;5.10;;;;;;;20.74;100.00;97325.34;5092269;28;20398;-71
2023/08/14 07:31:30;;;;;;;9.13;5.40;;;;;;;20.80;100.00;97325.97;5092286;28;20764;-72
2023/08/14 07:33:56;;;;;;;8.05;4.70;;;;;;;20.90;100.00;97325.63;5092352;28;20410;-72
2023/08/14 07:36:22;;;;;;;5.25;3.85;;;;;;;20.97;100.00;97325.97;5092182;28;20801;-72
2023/08/14 07:38:48;;;;;;;7.30;3.45;;;;;;;21.05;100.00;97321.66;5092007;28;20527;-71
2023/08/14 07:41:15;;;;;;;4.55;2.90;;;;;;;21.11;100.00;97321.19;5092032;28;20398;-71
2023/08/14 07:43:42;;;;;;;3.30;2.45;;;;;;;21.19;100.00;97316.91;5092121;28;20895;-71
2023/08/14 07:46:09;;;;;;;3.85;2.80;;;;;;;21.23;100.00;97320.53;5091925;28;20398;-71
2023/08/14 07:48:35;;;;;;;3.25;2.50;;;;;;;21.30;100.00;97315.44;5091877;28;20486;-71
2023/08/14 07:51:02;;;;;;;3.25;2.40;;;;;;;21.38;100.00;97316.53;5091793;28;20413;-71
2023/08/14 07:53:28;;;;;;;2.28;2.08;;;;;;;21.46;100.00;97308.41;5092003;28;20484;-71
2023/08/14 07:55:54;;;;;;;2.40;2.10;;;;;;;21.50;100.00;97313.97;5091582;28;20902;-71
2023/08/14 07:58:21;;;;;;;2.17;1.88;;;;;;;21.57;100.00;97317.72;5091633;28;20401;-70
2023/08/14 08:00:48;;;;;;;2.83;2.10;;;;;;;21.68;100.00;97317.34;5091452;28;20452;-72
2023/08/14 08:03:14;;;;;;;3.38;2.00;;;;;;;21.78;100.00;97325.88;5091789;28;20404;-72
2023/08/14 08:05:41;;;;;;;3.63;2.53;;;;;;;21.83;100.00;97319.50;5074149;28;20407;-71
2023/08/14 08:08:07;;;;;;;10.48;3.60;;;;;;;21.73;100.00;97322.53;5071349;28;20456;-71
2023/08/14 08:10:33;;;;;;;4.43;3.03;;;;;;;21.84;100.00;97326.47;5070948;28;20512;-72
2023/08/14 08:13:00;;;;;;;3.17;2.70;;;;;;;21.95;100.00;97322.31;5070918;28;20404;-72
2023/08/14 08:15:26;;;;;;;3.35;2.65;;;;;;;22.02;100.00;97328.00;5071100;28;20399;-72
2023/08/14 08:17:53;;;;;;;4.00;2.50;;;;;;;22.15;100.00;97328.88;5071108;28;20438;-72
2023/08/14 08:20:20;;;;;;;2.47;2.20;;;;;;;22.25;100.00;97328.50;5070946;28;20403;-72
2023/08/14 08:22:46;;;;;;;2.90;2.08;;;;;;;22.34;100.00;97332.69;5070765;28;20789;-72
2023/08/14 08:25:12;;;;;;;2.13;1.90;;;;;;;22.44;100.00;97328.81;5070921;28;20400;-72
2023/08/14 08:27:38;;;;;;;3.45;2.33;;;;;;;22.53;100.00;97336.84;5070940;28;20423;-72
2023/08/14 08:30:05;;;;;;;2.67;1.98;;;;;;;22.60;100.00;97339.81;5070912;28;20459;-71
2023/08/14 08:32:31;;;;;;;5.18;2.33;;;;;;;22.65;100.00;97337.69;5069874;28;20849;-72
2023/08/14 08:34:59;;;;;;;3.13;2.67;;;;;;;22.64;100.00;97335.31;5070789;28;20400;-71
2023/08/14 08:37:25;;;;;;;3.05;2.50;;;;;;;22.72;100.00;97339.84;5070743;28;20403;-72
2023/08/14 08:39:51;;;;;;;2.50;2.13;;;;;;;22.86;100.00;97334.19;5070535;28;20427;-72
2023/08/14 08:42:19;;;;;;;2.42;2.22;;;;;;;22.93;100.00;97331.78;5070522;28;20808;-72
2023/08/14 08:44:46;;;;;;;1.90;1.80;;;;;;;23.02;100.00;97329.75;5070487;28;20561;-72
2023/08/14 08:47:16;;;;;;;1.70;1.60;;;;;;;23.13;100.00;97333.63;5070708;28;20392;-72
2023/08/14 08:49:43;;;;;;;2.35;1.90;;;;;;;23.18;100.00;97333.41;5070379;28;20415;-72
2023/08/14 08:52:11;;;;;;;2.00;1.70;;;;;;;23.30;100.00;97332.66;5070452;28;20406;-72
2023/08/14 08:54:39;;;;;;;2.20;1.77;;;;;;;23.39;100.00;97323.31;5070520;28;20403;-72
2023/08/14 08:57:06;;;;;;;1.70;1.60;;;;;;;23.48;100.00;97326.75;5070383;28;20396;-72
2023/08/14 08:59:33;;;;;;;2.07;1.70;;;;;;;23.58;100.00;97327.44;5070323;28;20795;-72
2023/08/14 09:01:59;;;;;;;1.70;1.60;;;;;;;23.69;100.00;97332.06;5070333;28;20712;-72
2023/08/14 09:04:26;;;;;;;2.40;2.20;;;;;;;23.70;100.00;97333.63;5070379;28;20400;-72
2023/08/14 09:06:52;;;;;;;2.00;1.80;;;;;;;23.81;100.00;97344.81;5052251;28;20446;-72
2023/08/14 09:09:20;;;;;;;1.90;1.70;;;;;;;23.91;100.00;97336.22;5070053;28;20400;-72
2023/08/14 09:11:46;;;;;;;1.60;1.50;;;;;;;24.03;100.00;97330.81;5070101;28;20434;-72
2023/08/14 09:14:15;;;;;;;5.97;3.30;;;;;;;24.04;100.00;97331.63;5070361;28;20793;-72
2023/08/14 09:16:42;;;;;;;3.17;2.58;;;;;;;24.18;100.00;97338.25;5070175;28;20395;-72
2023/08/14 09:19:08;;;;;;;2.47;2.10;;;;;;;24.30;100.00;97342.88;5070130;28;20395;-72
2023/08/14 09:21:34;;;;;;;2.20;2.00;;;;;;;24.41;100.00;97349.41;5069939;28;20457;-72
2023/08/14 09:24:00;;;;;;;2.10;1.90;;;;;;;24.52;100.00;97342.38;5070229;28;20486;-72
2023/08/14 09:26:28;;;;;;;2.15;1.95;;;;;;;24.65;100.00;97337.72;5070111;28;20498;-72
2023/08/14 09:28:56;;;;;;;1.80;1.70;;;;;;;24.83;100.00;97340.91;5069798;28;20407;-72
2023/08/14 09:31:23;;;;;;;3.38;1.75;;;;;;;25.04;100.00;97328.00;5069897;28;21123;-72
2023/08/14 09:33:49;;;;;;;1.80;1.70;;;;;;;25.20;100.00;97328.03;5070138;28;20399;-72
2023/08/14 09:36:15;;;;;;;1.60;1.50;;;;;;;25.36;100.00;97324.22;5070237;28;20744;-72
2023/08/14 09:38:42;;;;;;;2.53;1.63;;;;;;;25.58;100.00;97320.13;5069949;28;20492;-72
2023/08/14 09:41:08;;;;;;;3.08;2.75;;;;;;;25.69;100.00;97320.41;5070093;28;20419;-72
2023/08/14 09:43:36;;;;;;;2.60;2.10;;;;;;;25.81;100.00;97315.66;5070220;28;21181;-71
2023/08/14 09:46:03;;;;;;;1.90;1.70;;;;;;;25.96;100.00;97314.06;5074210;28;20399;-72
2023/08/14 09:48:40;;;;;;;1.65;1.55;;;;;;;26.13;100.00;97318.31;5074171;28;20396;-72
2023/08/14 09:51:10;;;;;;;4.20;2.20;;;;;;;26.24;100.00;97318.56;5073816;28;20416;-71
2023/08/14 09:53:44;;;;;;;2.07;1.87;;;;;;;26.34;100.00;97316.09;5074007;28;20418;-72
2023/08/14 09:56:11;;;;;;;1.70;1.60;;;;;;;26.38;100.00;97322.41;5073932;28;20490;-72
2023/08/14 09:58:39;;;;;;;2.47;1.92;;;;;;;26.40;100.00;97311.97;5073882;28;20407;-72
2023/08/14 10:01:06;;;;;;;1.73;1.63;;;;;;;26.47;100.00;97311.31;5073988;28;20391;-72
2023/08/14 10:03:33;;;;;;;1.83;1.73;;;;;;;26.57;100.00;97310.78;5074128;28;20919;-72
2023/08/14 10:06:03;;;;;;;3.40;2.60;;;;;;;26.63;100.00;97312.06;5073802;28;20433;-72
2023/08/14 10:08:33;;;;;;;2.83;2.35;;;;;;;26.68;100.00;97309.06;5073663;28;20456;-72
2023/08/14 10:11:01;;;;;;;2.85;2.55;;;;;;;26.88;100.00;97307.91;5073438;28;20418;-72
2023/08/14 10:13:29;;;;;;;3.17;2.87;;;;;;;26.92;100.00;97308.00;5073776;28;20514;-72
2023/08/14 10:15:59;;;;;;;4.70;3.38;;;;;;;27.10;100.00;97309.13;5073638;28;20577;-72
2023/08/14 10:18:29;;;;;;;2.95;2.60;;;;;;;27.27;100.00;97300.50;5073553;28;20479;-72
2023/08/14 10:20:59;;;;;;;5.53;3.95;;;;;;;27.23;100.00;97294.22;5073633;28;20403;-72
2023/08/14 10:23:27;;;;;;;4.07;2.93;;;;;;;27.44;100.00;97293.03;5073511;28;20407;-72
2023/08/14 10:25:53;;;;;;;3.28;2.67;;;;;;;27.57;100.00;97295.22;5073417;28;20888;-72
2023/08/14 10:28:20;;;;;;;7.25;3.55;;;;;;;27.46;100.00;97301.59;5055368;28;20414;-72
2023/08/14 10:30:47;;;;;;;4.80;3.55;;;;;;;27.51;100.00;97302.09;5073197;28;20407;-72
2023/08/14 10:33:15;;;;;;;5.13;3.50;;;;;;;27.54;100.00;97306.81;5073252;28;20426;-72
2023/08/14 10:35:47;;;;;;;3.90;3.40;;;;;;;27.51;100.00;97298.59;5073086;28;20415;-72
2023/08/14 10:38:15;;;;;;;3.88;3.47;;;;;;;27.57;100.00;97305.31;5073008;28;20399;-72
2023/08/14 10:40:52;;;;;;;3.22;2.90;;;;;;;27.68;100.00;97300.81;5073210;28;20402;-72
2023/08/14 10:43:22;;;;;;;2.47;2.28;;;;;;;27.83;100.00;97304.53;5073143;28;20396;-72
2023/08/14 10:45:52;;;;;;;2.33;2.13;;;;;;;27.98;100.00;97303.59;5073186;28;20399;-72
2023/08/14 10:48:20;;;;;;;2.20;2.00;;;;;;;28.08;100.00;97309.22;5072852;28;20483;-72
2023/08/14 10:50:49;;;;;;;2.30;2.10;;;;;;;28.03;100.00;97295.94;5072795;28;20477;-72
2023/08/14 10:53:16;;;;;;;2.80;2.35;;;;;;;28.01;100.00;97305.59;5072986;28;20392;-72
2023/08/14 10:55:47;;;;;;;2.40;2.20;;;;;;;28.10;100.00;97304.19;5071820;28;20495;-72
2023/08/14 10:58:35;;;;;;;3.17;2.28;;;;;;;28.05;100.00;97309.94;5072868;28;20392;-72
2023/08/14 11:01:03;;;;;;;2.30;2.10;;;;;;;27.86;100.00;97307.31;5072719;28;20399;-72
2023/08/14 11:03:33;;;;;;;2.45;2.25;;;;;;;27.62;100.00;97311.22;5072743;28;20452;-72
2023/08/14 11:06:00;;;;;;;2.50;2.30;;;;;;;27.40;100.00;97316.63;5072589;28;20396;-72
2023/08/14 11:08:29;;;;;;;2.40;2.10;;;;;;;27.22;100.00;97311.66;5072498;28;20402;-72
2023/08/14 11:10:58;;;;;;;2.75;2.55;;;;;;;27.26;100.00;97317.19;5072412;28;20925;-73
2023/08/14 11:13:28;;;;;;;4.25;3.40;;;;;;;27.32;100.00;97315.72;5072611;28;20431;-72
2023/08/14 11:15:54;;;;;;;4.55;3.80;;;;;;;27.28;100.00;97318.41;5072293;28;20407;-72
2023/08/14 11:18:21;;;;;;;3.20;2.90;;;;;;;27.31;100.00;97319.59;5072312;28;20434;-72